createdAt,value
2022-10-10T00:01:51.110Z,55.97
2022-10-10T00:04:55.507Z,55.95
2022-10-10T00:07:58.905Z,55.87
2022-10-10T00:11:01.886Z,55.90
2022-10-10T00:14:04.819Z,55.97
2022-10-10T00:17:07.702Z,56.01
2022-10-10T00:20:13.352Z,55.90
2022-10-10T00:23:16.224Z,55.93
2022-10-10T00:26:19.576Z,55.97
2022-10-10T00:29:22.417Z,55.79
2022-10-10T00:32:25.252Z,55.87
2022-10-10T00:35:29.824Z,55.75
2022-10-10T00:38:32.687Z,55.77
2022-10-10T00:41:35.468Z,55.89
2022-10-10T00:44:38.384Z,55.83
2022-10-10T00:47:41.228Z,55.82
2022-10-10T00:50:49.599Z,55.75
2022-10-10T00:53:56.950Z,55.65
2022-10-10T00:57:05.423Z,55.82
2022-10-10T01:00:11.579Z,55.69
2022-10-10T01:03:14.426Z,55.73
2022-10-10T01:06:18.727Z,55.70
2022-10-10T01:09:21.781Z,55.65
2022-10-10T01:12:31.788Z,55.64
2022-10-10T01:15:46.424Z,55.54
2022-10-10T01:19:00.696Z,55.77
2022-10-10T01:22:19.450Z,55.68
2022-10-10T01:25:29.725Z,55.78
2022-10-10T01:28:43.669Z,55.74
2022-10-10T01:31:49.728Z,55.89
2022-10-10T01:35:02.741Z,55.71
2022-10-10T01:38:16.171Z,55.72
2022-10-10T01:41:23.310Z,55.73
2022-10-10T01:44:27.489Z,55.65
2022-10-10T01:47:30.262Z,55.46
2022-10-10T01:50:39.194Z,55.52
2022-10-10T01:53:47.828Z,55.47
2022-10-10T01:57:03.165Z,55.43
2022-10-10T02:00:10.400Z,55.53
2022-10-10T02:03:18.402Z,55.53
2022-10-10T02:06:26.766Z,55.55
2022-10-10T02:09:36.330Z,55.55
2022-10-10T02:12:40.785Z,55.55
2022-10-10T02:15:48.896Z,55.55
2022-10-10T02:18:52.603Z,55.52
2022-10-10T02:21:56.548Z,55.62
2022-10-10T02:24:59.693Z,55.38
2022-10-10T02:28:11.459Z,55.37
2022-10-10T02:31:19.962Z,55.55
2022-10-10T02:34:27.003Z,55.38
2022-10-10T02:37:31.741Z,55.32
2022-10-10T02:40:36.623Z,55.43
2022-10-10T02:43:40.332Z,55.42
2022-10-10T02:46:44.565Z,55.43
2022-10-10T02:49:47.391Z,55.43
2022-10-10T02:52:50.549Z,55.39
2022-10-10T02:55:53.548Z,55.30
2022-10-10T02:58:56.333Z,55.45
2022-10-10T03:02:00.575Z,55.33
2022-10-10T03:05:05.619Z,55.38
2022-10-10T03:08:11.684Z,55.47
2022-10-10T03:11:14.861Z,55.33
2022-10-10T03:14:17.655Z,55.32
2022-10-10T03:17:21.856Z,55.36
2022-10-10T03:20:24.654Z,55.43
2022-10-10T03:23:27.483Z,55.22
2022-10-10T03:26:30.251Z,55.25
2022-10-10T03:29:33.189Z,55.30
2022-10-10T03:32:37.411Z,55.38
2022-10-10T03:35:40.451Z,55.28
2022-10-10T03:38:43.277Z,55.26
2022-10-10T03:41:46.069Z,55.30
2022-10-10T03:44:48.845Z,55.20
2022-10-10T03:47:52.997Z,55.33
2022-10-10T03:50:55.847Z,55.23
2022-10-10T03:53:58.665Z,55.18
2022-10-10T03:57:01.494Z,55.33
2022-10-10T04:00:05.139Z,55.22
2022-10-10T04:03:09.342Z,55.22
2022-10-10T04:06:12.191Z,55.28
2022-10-10T04:09:14.950Z,55.31
2022-10-10T04:12:17.800Z,55.30
2022-10-10T04:15:20.698Z,55.21
2022-10-10T04:18:25.274Z,55.28
2022-10-10T04:21:28.140Z,55.21
2022-10-10T04:24:31.062Z,55.32
2022-10-10T04:27:33.915Z,55.07
2022-10-10T04:30:36.750Z,55.18
2022-10-10T04:33:40.924Z,55.31
2022-10-10T04:36:43.928Z,55.18
2022-10-10T04:39:46.726Z,55.21
2022-10-10T04:42:49.868Z,55.20
2022-10-10T04:45:52.960Z,54.98
2022-10-10T04:48:57.095Z,55.08
2022-10-10T04:52:00.126Z,55.07
2022-10-10T04:55:02.950Z,55.05
2022-10-10T04:58:05.742Z,54.95
2022-10-10T05:01:08.671Z,54.96
2022-10-10T05:04:13.165Z,55.01
2022-10-10T05:07:15.947Z,55.27
2022-10-10T05:10:18.888Z,55.05
2022-10-10T05:13:21.761Z,55.11
2022-10-10T05:16:24.747Z,55.08
2022-10-10T05:19:28.981Z,55.05
2022-10-10T05:22:32.050Z,55.06
2022-10-10T05:25:34.899Z,55.06
2022-10-10T05:28:37.936Z,54.95
2022-10-10T05:31:40.797Z,55.14
2022-10-10T05:34:44.942Z,54.98
2022-10-10T05:37:47.758Z,54.94
2022-10-10T05:40:50.655Z,54.94
2022-10-10T05:43:53.906Z,54.98
2022-10-10T05:46:56.789Z,54.93
2022-10-10T05:50:00.987Z,54.95
2022-10-10T05:53:03.886Z,54.89
2022-10-10T05:56:07.639Z,54.86
2022-10-10T05:59:10.642Z,55.00
2022-10-10T06:02:13.647Z,54.62
2022-10-10T06:05:18.399Z,54.65
2022-10-10T06:08:21.236Z,54.72
2022-10-10T06:11:25.896Z,53.83
2022-10-10T06:14:28.750Z,52.44
2022-10-10T06:17:31.575Z,51.30
2022-10-10T06:20:37.656Z,50.19
2022-10-10T06:23:40.608Z,49.55
2022-10-10T06:26:43.478Z,49.87
2022-10-10T06:29:46.306Z,49.80
2022-10-10T06:32:51.697Z,49.98
2022-10-10T06:35:58.868Z,50.29
2022-10-10T06:39:01.633Z,49.98
2022-10-10T06:42:04.724Z,48.97
2022-10-10T06:45:09.425Z,48.23
2022-10-10T06:48:14.088Z,48.22
2022-10-10T06:51:19.309Z,48.51
2022-10-10T06:54:22.536Z,48.55
2022-10-10T06:57:25.428Z,48.57
2022-10-10T07:00:28.305Z,48.71
2022-10-10T07:03:31.749Z,48.81
2022-10-10T07:06:36.091Z,48.88
2022-10-10T07:09:38.952Z,49.03
2022-10-10T07:12:44.781Z,49.27
2022-10-10T07:15:48.351Z,49.45
2022-10-10T07:18:51.651Z,49.46
2022-10-10T07:21:55.897Z,49.67
2022-10-10T07:24:59.254Z,49.93
2022-10-10T07:28:02.124Z,49.84
2022-10-10T07:31:07.354Z,49.90
2022-10-10T07:34:10.302Z,50.05
2022-10-10T07:37:14.581Z,50.14
2022-10-10T07:40:17.606Z,50.35
2022-10-10T07:43:20.517Z,50.38
2022-10-10T07:46:23.504Z,50.64
2022-10-10T07:49:26.396Z,50.67
2022-10-10T07:52:30.578Z,50.71
2022-10-10T07:55:33.333Z,50.86
2022-10-10T07:58:36.702Z,50.96
2022-10-10T08:01:39.519Z,51.11
2022-10-10T08:04:43.059Z,51.24
2022-10-10T08:07:47.213Z,51.44
2022-10-10T08:10:50.096Z,51.53
2022-10-10T08:13:52.897Z,51.63
2022-10-10T08:16:55.727Z,51.67
2022-10-10T08:19:58.547Z,51.68
2022-10-10T08:23:02.741Z,51.75
2022-10-10T08:26:07.966Z,51.84
2022-10-10T08:29:10.743Z,51.90
2022-10-10T08:32:13.591Z,52.00
2022-10-10T08:35:16.614Z,52.12
2022-10-10T08:38:20.808Z,52.22
2022-10-10T08:41:33.720Z,52.19
2022-10-10T08:44:41.599Z,52.22
2022-10-10T08:47:49.267Z,52.33
2022-10-10T08:50:57.315Z,52.35
2022-10-10T08:54:06.981Z,52.50
2022-10-10T08:57:23.697Z,52.57
2022-10-10T09:00:33.273Z,52.65
2022-10-10T09:03:42.434Z,52.53
2022-10-10T09:07:03.335Z,52.67
2022-10-10T09:10:19.559Z,52.66
2022-10-10T09:13:32.703Z,52.73
2022-10-10T09:16:43.739Z,52.84
2022-10-10T09:19:57.379Z,52.86
2022-10-10T09:23:04.479Z,52.88
2022-10-10T09:26:12.775Z,52.98
2022-10-10T09:29:28.742Z,53.04
2022-10-10T09:32:37.276Z,52.94
2022-10-10T09:35:42.430Z,53.02
2022-10-10T09:38:49.107Z,53.17
2022-10-10T09:41:59.069Z,53.17
2022-10-10T09:45:02.235Z,53.02
2022-10-10T09:48:05.502Z,53.14
2022-10-10T09:51:14.147Z,53.16
2022-10-10T09:54:20.020Z,53.10
2022-10-10T09:57:28.159Z,53.24
2022-10-10T10:00:37.150Z,53.10
2022-10-10T10:03:40.013Z,53.17
2022-10-10T10:06:45.798Z,53.16
2022-10-10T10:09:50.399Z,53.22
2022-10-10T10:12:56.069Z,53.22
2022-10-10T10:16:05.314Z,53.43
2022-10-10T10:19:32.123Z,53.37
2022-10-10T10:22:38.521Z,53.33
2022-10-10T10:25:41.299Z,53.54
2022-10-10T10:28:46.967Z,53.41
2022-10-10T10:31:58.173Z,53.46
2022-10-10T10:35:14.948Z,53.31
2022-10-10T10:38:33.776Z,53.45
2022-10-10T10:41:45.127Z,53.39
2022-10-10T10:44:58.229Z,53.60
2022-10-10T10:48:12.294Z,53.61
2022-10-10T10:51:43.934Z,53.60
2022-10-10T10:55:03.188Z,53.49
2022-10-10T11:01:58.517Z,53.58
2022-10-10T11:05:31.099Z,53.69
2022-10-10T11:08:48.987Z,53.79
2022-10-10T11:12:20.729Z,53.75
2022-10-10T11:15:37.610Z,53.67
2022-10-10T11:19:08.954Z,53.79
2022-10-10T11:22:17.698Z,53.70
2022-10-10T11:25:24.343Z,53.60
2022-10-10T11:28:32.874Z,53.78
2022-10-10T11:31:42.047Z,53.82
2022-10-10T11:34:55.979Z,53.76
2022-10-10T11:38:05.763Z,53.91
2022-10-10T11:41:14.886Z,53.82
2022-10-10T11:44:23.467Z,53.81
2022-10-10T11:47:32.876Z,53.95
2022-10-10T11:50:41.353Z,53.72
2022-10-10T11:53:47.089Z,53.91
2022-10-10T11:56:51.998Z,53.99
2022-10-10T11:59:59.242Z,53.98
2022-10-10T12:03:02.320Z,53.87
2022-10-10T12:06:18.502Z,53.89
2022-10-10T12:09:27.081Z,53.88
2022-10-10T12:12:34.752Z,54.04
2022-10-10T12:15:42.740Z,53.92
2022-10-10T12:18:53.481Z,53.94
2022-10-10T12:22:00.505Z,53.98
2022-10-10T12:25:20.947Z,54.11
2022-10-10T12:28:28.049Z,53.95
2022-10-10T12:31:33.759Z,54.04
2022-10-10T12:34:44.710Z,54.16
2022-10-10T12:38:11.584Z,54.02
2022-10-10T12:41:15.617Z,54.03
2022-10-10T12:44:23.565Z,54.01
2022-10-10T12:47:59.851Z,54.18
2022-10-10T12:51:00.139Z,54.08
2022-10-10T12:54:08.265Z,54.15
2022-10-10T12:57:18.367Z,54.07
2022-10-10T13:00:24.003Z,54.08
2022-10-10T13:03:31.258Z,54.22
2022-10-10T13:06:39.604Z,54.15
2022-10-10T13:09:45.393Z,54.15
2022-10-10T13:13:00.598Z,54.24
2022-10-10T13:16:10.002Z,54.08
2022-10-10T13:19:19.429Z,54.26
2022-10-10T13:22:23.497Z,54.22
2022-10-10T13:25:28.477Z,54.24
2022-10-10T13:28:31.361Z,54.29
2022-10-10T13:31:34.261Z,54.19
2022-10-10T13:34:38.785Z,54.26
2022-10-10T13:37:42.835Z,54.13
2022-10-10T13:40:47.574Z,54.35
2022-10-10T13:43:50.739Z,54.32
2022-10-10T13:46:53.621Z,54.23
2022-10-10T13:49:57.856Z,54.20
2022-10-10T13:53:32.696Z,54.26
2022-10-10T13:56:41.615Z,54.20
2022-10-10T13:59:45.912Z,54.25
2022-10-10T14:02:50.438Z,54.30
2022-10-10T14:05:53.639Z,54.26
2022-10-10T14:09:03.617Z,54.42
2022-10-10T14:12:15.975Z,54.35
2022-10-10T14:15:44.693Z,54.43
2022-10-10T14:18:47.908Z,54.38
2022-10-10T14:21:50.675Z,54.29
2022-10-10T14:24:53.477Z,54.32
2022-10-10T14:27:57.904Z,54.39
2022-10-10T14:31:01.156Z,54.27
2022-10-10T14:34:04.391Z,54.37
2022-10-10T14:37:07.571Z,54.53
2022-10-10T14:40:19.081Z,54.34
2022-10-10T14:43:24.316Z,54.45
2022-10-10T14:46:27.122Z,54.43
2022-10-10T14:49:29.882Z,54.34
2022-10-10T14:52:32.735Z,54.41
2022-10-10T14:55:35.864Z,54.33
2022-10-10T14:58:40.005Z,54.32
2022-10-10T15:01:42.765Z,54.34
2022-10-10T15:04:45.532Z,54.49
2022-10-10T15:07:50.453Z,54.36
2022-10-10T15:10:53.346Z,54.35
2022-10-10T15:13:58.328Z,54.50
2022-10-10T15:17:01.080Z,54.50
2022-10-10T15:20:05.753Z,54.42
2022-10-10T15:23:09.785Z,54.48
2022-10-10T15:26:12.610Z,54.51
2022-10-10T15:29:16.802Z,54.56
2022-10-10T15:32:19.667Z,54.55
2022-10-10T15:35:24.303Z,54.58
2022-10-10T15:38:27.185Z,54.43
2022-10-10T15:41:29.997Z,54.60
2022-10-10T15:44:34.197Z,54.52
2022-10-10T15:47:44.176Z,54.60
2022-10-10T15:50:51.249Z,54.47
2022-10-10T15:53:56.987Z,54.58
2022-10-10T15:56:59.779Z,54.57
2022-10-10T16:00:05.245Z,54.65
2022-10-10T16:03:14.984Z,54.49
2022-10-10T16:06:19.533Z,54.50
2022-10-10T16:09:28.711Z,54.56
2022-10-10T16:12:32.051Z,54.54
2022-10-10T16:15:36.455Z,54.57
2022-10-10T16:18:41.799Z,54.61
2022-10-10T16:21:44.814Z,54.62
2022-10-10T16:25:04.037Z,54.52
2022-10-10T16:28:10.652Z,54.64
2022-10-10T16:31:16.377Z,54.63
2022-10-10T16:34:19.538Z,54.51
2022-10-10T16:37:22.345Z,54.58
2022-10-10T16:40:25.272Z,54.57
2022-10-10T16:43:28.053Z,54.55
2022-10-10T16:46:32.198Z,54.72
2022-10-10T16:49:34.990Z,54.55
2022-10-10T16:52:38.603Z,54.66
2022-10-10T16:55:42.472Z,54.67
2022-10-10T16:58:45.371Z,54.65
2022-10-10T17:01:49.559Z,54.64
2022-10-10T17:04:52.677Z,54.69
2022-10-10T17:07:55.696Z,54.76
2022-10-10T17:10:59.016Z,54.80
2022-10-10T17:14:01.968Z,54.71
2022-10-10T17:17:12.044Z,54.62
2022-10-10T17:20:15.227Z,54.69
2022-10-10T17:23:18.238Z,54.64
2022-10-10T17:26:23.306Z,54.65
2022-10-10T17:29:26.178Z,54.69
2022-10-10T17:32:30.309Z,54.67
2022-10-10T17:35:33.203Z,54.58
2022-10-10T17:38:40.023Z,54.71
2022-10-10T17:41:43.299Z,54.82
2022-10-10T17:44:51.433Z,54.83
2022-10-10T17:47:59.393Z,54.68
2022-10-10T17:51:02.167Z,54.76
2022-10-10T17:54:06.620Z,54.69
2022-10-10T17:57:10.220Z,54.77
2022-10-10T18:00:14.319Z,54.76
2022-10-10T18:03:19.850Z,54.67
2022-10-10T18:06:24.081Z,54.81
2022-10-10T18:09:26.905Z,54.71
2022-10-10T18:12:29.653Z,54.72
2022-10-10T18:15:32.452Z,54.72
2022-10-10T18:18:37.077Z,54.72
2022-10-10T18:21:39.896Z,54.73
2022-10-10T18:24:42.728Z,54.81
2022-10-10T18:27:45.551Z,54.70
2022-10-10T18:30:48.356Z,54.77
2022-10-10T18:33:52.514Z,54.76
2022-10-10T18:36:55.298Z,54.70
2022-10-10T18:39:58.124Z,54.72
2022-10-10T18:43:00.925Z,54.68
2022-10-10T18:46:05.452Z,54.73
2022-10-10T18:49:10.101Z,54.78
2022-10-10T18:52:12.997Z,54.81
2022-10-10T18:55:18.010Z,54.84
2022-10-10T18:58:20.954Z,54.72
2022-10-10T19:01:25.438Z,54.71
2022-10-10T19:04:29.774Z,54.83
2022-10-10T19:07:32.579Z,54.86
2022-10-10T19:10:35.389Z,54.71
2022-10-10T19:13:38.191Z,54.75
2022-10-10T19:16:43.028Z,54.89
2022-10-10T19:19:47.894Z,54.80
2022-10-10T19:22:50.798Z,54.75
2022-10-10T19:25:53.750Z,54.73
2022-10-10T19:28:56.528Z,54.67
2022-10-10T19:31:59.337Z,54.71
2022-10-10T19:35:03.470Z,54.70
2022-10-10T19:38:07.345Z,54.84
2022-10-10T19:41:12.756Z,54.75
2022-10-10T19:44:15.632Z,54.70
2022-10-10T19:47:18.439Z,54.78
2022-10-10T19:50:22.575Z,54.80
2022-10-10T19:53:25.584Z,54.68
2022-10-10T19:56:28.436Z,54.89
2022-10-10T19:59:31.821Z,54.87
2022-10-10T20:02:34.695Z,54.83
2022-10-10T20:05:38.836Z,54.92
2022-10-10T20:08:42.056Z,54.72
2022-10-10T20:11:44.827Z,54.76
2022-10-10T20:14:47.623Z,54.75
2022-10-10T20:17:50.521Z,54.69
2022-10-10T20:20:54.996Z,54.66
2022-10-10T20:23:59.444Z,54.74
2022-10-10T20:27:02.237Z,54.71
2022-10-10T20:30:05.836Z,54.86
2022-10-10T20:33:08.719Z,54.75
2022-10-10T20:36:13.153Z,54.77
2022-10-10T20:39:15.948Z,54.79
2022-10-10T20:42:18.750Z,54.96
2022-10-10T20:45:21.839Z,54.93
2022-10-10T20:48:24.629Z,54.88
2022-10-10T20:51:29.450Z,54.92
2022-10-10T20:54:32.253Z,54.87
2022-10-10T20:57:35.058Z,54.81
2022-10-10T21:00:40.801Z,54.89
2022-10-10T21:03:44.533Z,54.74
2022-10-10T21:06:48.680Z,54.79
2022-10-10T21:09:51.521Z,54.86
2022-10-10T21:12:54.294Z,54.74
2022-10-10T21:15:57.048Z,54.75
2022-10-10T21:19:00.313Z,54.97
2022-10-10T21:22:04.574Z,54.88
2022-10-10T21:25:08.273Z,54.94
2022-10-10T21:28:11.300Z,54.86
2022-10-10T21:31:15.508Z,55.00
2022-10-10T21:34:19.035Z,54.79
2022-10-10T21:37:23.294Z,54.86
2022-10-10T21:40:26.104Z,54.85
2022-10-10T21:43:28.871Z,54.78
2022-10-10T21:46:36.576Z,54.89
2022-10-10T21:49:39.819Z,54.75
2022-10-10T21:52:44.001Z,54.92
2022-10-10T21:55:46.780Z,54.85
2022-10-10T21:58:49.582Z,54.90
2022-10-10T22:01:52.353Z,54.88
2022-10-10T22:04:55.621Z,54.85
2022-10-10T22:07:59.759Z,54.79
2022-10-10T22:11:02.959Z,54.88
2022-10-10T22:14:05.903Z,54.97
2022-10-10T22:17:08.690Z,55.02
2022-10-10T22:20:13.235Z,54.97
2022-10-10T22:23:17.760Z,54.99
2022-10-10T22:26:20.560Z,54.88
2022-10-10T22:29:23.363Z,54.93
2022-10-10T22:32:26.247Z,54.95
2022-10-10T22:35:29.023Z,54.95
2022-10-10T22:38:33.258Z,55.00
2022-10-10T22:41:36.040Z,54.97
2022-10-10T22:44:38.815Z,55.03
2022-10-10T22:47:41.596Z,54.98
2022-10-10T22:50:44.431Z,54.98
2022-10-10T22:53:49.352Z,54.92
2022-10-10T22:56:52.096Z,55.09
2022-10-10T22:59:55.032Z,55.01
2022-10-10T23:02:58.668Z,54.96
2022-10-10T23:06:01.732Z,54.95
2022-10-10T23:09:06.604Z,54.94
2022-10-10T23:12:10.165Z,54.94
2022-10-10T23:15:12.922Z,54.94
2022-10-10T23:18:15.786Z,54.93
2022-10-10T23:21:18.813Z,55.13
2022-10-10T23:24:23.176Z,55.18
2022-10-10T23:27:26.042Z,55.14
2022-10-10T23:30:28.891Z,55.14
2022-10-10T23:33:35.966Z,55.01
2022-10-10T23:36:39.835Z,55.09
2022-10-10T23:39:44.100Z,55.14
2022-10-10T23:42:46.945Z,55.05
2022-10-10T23:45:50.370Z,55.03
2022-10-10T23:48:53.180Z,55.02
2022-10-10T23:51:56.029Z,55.05
2022-10-10T23:55:00.239Z,55.06
2022-10-10T23:58:03.274Z,55.04
